Time;durP1;ratioP1;P1;durP2;ratioP2;P2;SDS_P1;SDS_P2;PMS_P1;PMS_P2;Temp;Humidity;BMP_temperature;BMP_pressure;BME280_temperature;BME280_humidity;BME280_pressure;Samples;Min_cycle;Max_cycle;Signal;HPM_P1;HPM_P2
2021/03/01 00:01:04;;;;;;;45.00;20.58;;;3.70;99.90;;;;;;4465030;27;658776;-50
2021/03/01 00:03:51;;;;;;;41.23;18.93;;;3.60;99.90;;;;;;4478393;27;657427;-48
2021/03/01 00:06:38;;;;;;;39.78;19.55;;;3.50;99.90;;;;;;4458783;27;657511;-51
2021/03/01 00:09:25;;;;;;;40.60;18.70;;;3.50;99.90;;;;;;4484185;27;659224;-50
2021/03/01 00:12:12;;;;;;;48.83;20.53;;;3.40;99.90;;;;;;4464870;27;657971;-52
2021/03/01 00:15:00;;;;;;;44.47;19.47;;;3.50;99.90;;;;;;4489047;27;657791;-49
2021/03/01 00:17:47;;;;;;;43.00;19.95;;;3.20;99.90;;;;;;4470256;27;658378;-54
2021/03/01 00:20:34;;;;;;;45.47;20.27;;;3.20;99.90;;;;;;4487592;27;657343;-50
2021/03/01 00:23:21;;;;;;;47.77;20.13;;;3.00;99.90;;;;;;4477976;27;658258;-45
2021/03/01 00:26:08;;;;;;;48.33;20.87;;;3.00;99.90;;;;;;4465535;27;659123;-49
2021/03/01 00:28:55;;;;;;;47.17;20.87;;;2.80;99.90;;;;;;4484785;27;659038;-50
2021/03/01 00:31:43;;;;;;;53.88;21.42;;;3.00;99.90;;;;;;4470562;27;658862;-54
2021/03/01 00:34:30;;;;;;;46.10;21.50;;;3.10;99.90;;;;;;4488623;27;658558;-47
2021/03/01 00:37:17;;;;;;;48.37;22.23;;;3.20;99.90;;;;;;4467401;27;658777;-52
2021/03/01 00:40:05;;;;;;;51.83;22.70;;;3.10;99.90;;;;;;4469932;27;657890;-49
2021/03/01 00:42:52;;;;;;;54.60;22.70;;;3.00;99.90;;;;;;4459883;27;659079;-52
2021/03/01 00:45:40;;;;;;;39.90;16.02;;;3.00;99.90;;;;;;4483599;27;657062;-48
2021/03/01 00:48:27;;;;;;;45.90;21.83;;;3.10;99.90;;;;;;4475782;27;658378;-46
2021/03/01 00:51:14;;;;;;;51.60;20.00;;;3.00;99.90;;;;;;4459322;27;658674;-46
2021/03/01 00:54:01;;;;;;;49.47;21.70;;;2.80;99.90;;;;;;4483020;27;658918;-48
2021/03/01 00:56:48;;;;;;;56.03;21.70;;;2.80;99.90;;;;;;4462763;27;658377;-48
2021/03/01 00:59:35;;;;;;;44.10;20.60;;;2.80;99.90;;;;;;4484128;27;657534;-47
2021/03/01 01:02:22;;;;;;;43.67;19.53;;;2.90;99.90;;;;;;4464813;27;658462;-49
2021/03/01 01:05:12;;;;;;;45.50;19.83;;;3.00;99.90;;;;;;4483775;27;659332;-46
2021/03/01 01:07:59;;;;;;;45.27;20.73;;;3.00;99.90;;;;;;4453003;27;658481;-49
2021/03/01 01:10:46;;;;;;;46.70;19.80;;;2.90;99.90;;;;;;4483368;27;657549;-46
2021/03/01 01:13:33;;;;;;;47.57;19.13;;;2.90;99.90;;;;;;4463173;27;657395;-52
2021/03/01 01:16:20;;;;;;;41.23;18.97;;;2.80;99.90;;;;;;4476991;27;658906;-46
2021/03/01 01:19:07;;;;;;;41.37;16.50;;;2.90;99.90;;;;;;4464097;27;657999;-52
2021/03/01 01:21:55;;;;;;;51.83;20.87;;;2.90;99.90;;;;;;4483558;28;659328;-49
2021/03/01 01:24:42;;;;;;;54.67;22.07;;;2.70;99.90;;;;;;4459066;28;658950;-50
2021/03/01 01:27:29;;;;;;;47.07;19.57;;;2.60;99.90;;;;;;4483725;28;657324;-49
2021/03/01 01:30:19;;;;;;;50.00;21.53;;;2.50;99.90;;;;;;4479616;28;658597;-49
2021/03/01 01:33:06;;;;;;;52.77;21.23;;;2.70;99.90;;;;;;4456800;28;658162;-50
2021/03/01 01:35:53;;;;;;;49.27;20.67;;;2.60;99.90;;;;;;4460970;28;658444;-47
2021/03/01 01:38:41;;;;;;;54.33;21.33;;;2.50;99.90;;;;;;4479469;28;659591;-52
2021/03/01 01:41:28;;;;;;;49.83;20.03;;;2.50;99.90;;;;;;4464338;28;657877;-51
2021/03/01 01:44:15;;;;;;;59.03;22.80;;;2.50;99.90;;;;;;4487266;28;658893;-52
2021/03/01 01:47:02;;;;;;;55.23;21.57;;;2.40;99.90;;;;;;4482571;28;657724;-53
2021/03/01 01:49:49;;;;;;;55.53;22.73;;;2.40;99.90;;;;;;4488101;28;657279;-50
2021/03/01 01:52:36;;;;;;;54.30;22.77;;;2.40;99.90;;;;;;4478012;28;657874;-47
2021/03/01 01:55:25;;;;;;;55.67;22.00;;;2.50;99.90;;;;;;4463528;28;658303;-48
2021/03/01 01:58:11;;;;;;;55.70;22.83;;;2.30;99.90;;;;;;4483834;28;657491;-49
2021/03/01 02:00:59;;;;;;;50.57;21.20;;;2.30;99.90;;;;;;4460952;28;658695;-47
2021/03/01 02:03:48;;;;;;;52.67;22.57;;;2.50;99.90;;;;;;4481086;28;658265;-47
2021/03/01 02:06:40;;;;;;;50.30;21.30;;;2.50;99.90;;;;;;4460556;28;658970;-48
2021/03/01 02:09:29;;;;;;;55.97;22.57;;;2.40;99.90;;;;;;4481594;28;657532;-51
2021/03/01 02:12:21;;;;;;;57.70;22.47;;;2.30;99.90;;;;;;4474897;28;657530;-46
2021/03/01 02:15:09;;;;;;;50.87;21.60;;;2.20;99.90;;;;;;4438162;28;657575;-49
2021/03/01 02:17:56;;;;;;;53.07;22.03;;;2.30;99.90;;;;;;4482985;27;658197;-50
2021/03/01 02:20:44;;;;;;;56.93;23.53;;;2.50;99.90;;;;;;4467495;27;657646;-50
2021/03/01 02:23:32;;;;;;;50.83;19.57;;;2.40;99.90;;;;;;4469865;27;658580;-49
2021/03/01 02:26:21;;;;;;;59.57;22.60;;;2.50;99.90;;;;;;4467554;27;658602;-50
2021/03/01 02:29:09;;;;;;;53.30;19.53;;;2.60;99.90;;;;;;4457814;27;659325;-49
2021/03/01 02:31:57;;;;;;;53.93;23.13;;;2.70;99.90;;;;;;4485990;27;657943;-50
2021/03/01 02:34:44;;;;;;;57.08;22.17;;;2.60;99.90;;;;;;4463274;27;659099;-48
2021/03/01 02:37:31;;;;;;;53.97;22.13;;;2.50;99.90;;;;;;4478017;27;657546;-46
2021/03/01 02:40:20;;;;;;;54.07;22.37;;;2.50;99.90;;;;;;4466789;27;658993;-47
2021/03/01 02:43:07;;;;;;;54.80;22.97;;;2.60;99.90;;;;;;4473920;27;658425;-52
2021/03/01 02:45:54;;;;;;;57.47;21.73;;;2.40;99.90;;;;;;4485087;27;658573;-46
2021/03/01 02:48:41;;;;;;;55.53;22.07;;;2.40;99.90;;;;;;4485611;27;657949;-52
2021/03/01 02:51:28;;;;;;;55.00;21.10;;;2.30;99.90;;;;;;4458835;27;658221;-50
2021/03/01 02:54:15;;;;;;;51.50;19.23;;;2.50;99.90;;;;;;4481086;27;658525;-49
2021/03/01 02:57:04;;;;;;;50.43;21.47;;;2.50;99.90;;;;;;4466823;27;657507;-49
2021/03/01 02:59:52;;;;;;;58.63;22.23;;;2.40;99.90;;;;;;4486271;27;658783;-49
2021/03/01 03:02:41;;;;;;;50.13;21.40;;;2.40;99.90;;;;;;4457826;27;659329;-47
2021/03/01 03:05:27;;;;;;;58.50;23.13;;;2.40;99.90;;;;;;4451572;27;657628;-51
2021/03/01 03:08:14;;;;;;;55.07;22.50;;;2.40;99.90;;;;;;4485903;27;658580;-51
2021/03/01 03:11:01;;;;;;;58.10;22.80;;;2.30;99.90;;;;;;4484940;27;657692;-48
2021/03/01 03:13:49;;;;;;;55.90;22.50;;;2.60;99.90;;;;;;4464951;27;658199;-51
2021/03/01 03:16:36;;;;;;;53.20;20.48;;;2.50;99.90;;;;;;4484929;27;658400;-46
2021/03/01 03:19:23;;;;;;;55.15;20.30;;;2.40;99.90;;;;;;4466587;27;657545;-50
2021/03/01 03:22:11;;;;;;;57.27;21.97;;;2.60;99.90;;;;;;4485642;27;659555;-47
2021/03/01 03:24:58;;;;;;;53.30;21.37;;;2.50;99.90;;;;;;4451455;27;657491;-49
2021/03/01 03:27:45;;;;;;;57.43;20.47;;;2.40;99.90;;;;;;4486236;27;658700;-49
2021/03/01 03:30:33;;;;;;;43.13;14.43;;;2.40;99.90;;;;;;4478501;27;657838;-52
2021/03/01 03:33:20;;;;;;;54.88;20.70;;;2.50;99.90;;;;;;4481032;27;659861;-49
2021/03/01 03:36:08;;;;;;;60.17;22.02;;;2.70;99.90;;;;;;4457774;27;657564;-53
2021/03/01 03:38:56;;;;;;;55.87;21.93;;;2.50;99.90;;;;;;4484877;27;660203;-46
2021/03/01 03:41:43;;;;;;;52.00;19.95;;;2.50;99.90;;;;;;4465588;27;657785;-48
2021/03/01 03:44:31;;;;;;;60.25;20.45;;;2.40;99.90;;;;;;4485341;27;658316;-48
2021/03/01 03:47:19;;;;;;;53.77;21.27;;;2.50;99.90;;;;;;4464838;27;658754;-47
2021/03/01 03:50:07;;;;;;;56.43;21.77;;;2.50;99.90;;;;;;4484773;27;658915;-49
2021/03/01 03:52:55;;;;;;;61.63;21.70;;;2.40;99.90;;;;;;4460200;27;658423;-48
2021/03/01 03:55:43;;;;;;;57.10;21.80;;;2.40;99.90;;;;;;4469695;27;658633;-51
2021/03/01 03:58:31;;;;;;;54.43;20.50;;;2.30;99.90;;;;;;4487469;27;659137;-47
2021/03/01 04:01:19;;;;;;;52.60;20.63;;;2.30;99.90;;;;;;4466450;27;658288;-50
2021/03/01 04:04:08;;;;;;;52.53;20.47;;;2.50;99.90;;;;;;4484106;27;658029;-46
2021/03/01 04:06:56;;;;;;;61.07;21.03;;;2.60;99.90;;;;;;4461026;27;658153;-49
2021/03/01 04:09:43;;;;;;;54.50;20.17;;;2.50;99.90;;;;;;4465764;27;657970;-54
2021/03/01 04:12:30;;;;;;;54.73;20.40;;;2.60;99.90;;;;;;4482349;27;658673;-48
2021/03/01 04:15:17;;;;;;;53.25;20.05;;;2.50;99.90;;;;;;4460454;27;659093;-54
2021/03/01 04:18:05;;;;;;;58.23;21.17;;;2.50;99.90;;;;;;4483621;27;658941;-46
2021/03/01 04:20:54;;;;;;;60.00;21.77;;;2.40;99.90;;;;;;4459007;27;658559;-54
2021/03/01 04:23:41;;;;;;;59.10;21.13;;;2.40;99.90;;;;;;4484220;27;658569;-47
2021/03/01 04:26:28;;;;;;;56.17;20.10;;;2.30;99.90;;;;;;4465928;27;658616;-51
2021/03/01 04:29:15;;;;;;;53.70;21.30;;;2.40;99.90;;;;;;4484117;27;659864;-49
2021/03/01 04:32:02;;;;;;;54.17;20.53;;;2.30;99.90;;;;;;4472971;27;658632;-53
2021/03/01 04:34:49;;;;;;;53.13;21.57;;;2.30;99.90;;;;;;4475896;27;658421;-49
2021/03/01 04:37:37;;;;;;;56.57;20.33;;;2.30;99.90;;;;;;4481872;27;657832;-48
2021/03/01 04:40:24;;;;;;;62.27;21.73;;;2.20;99.90;;;;;;4450052;27;659145;-50
2021/03/01 04:43:11;;;;;;;62.93;20.93;;;2.20;99.90;;;;;;4483908;27;658283;-50
2021/03/01 04:45:58;;;;;;;62.37;20.80;;;2.20;99.90;;;;;;4465377;27;657752;-49
2021/03/01 04:48:45;;;;;;;56.13;21.17;;;2.20;99.90;;;;;;4480104;27;658792;-50
2021/03/01 04:51:32;;;;;;;63.60;22.65;;;2.10;99.90;;;;;;4465074;27;658936;-52
2021/03/01 04:54:21;;;;;;;69.67;21.97;;;2.10;99.90;;;;;;4480224;27;658600;-51
2021/03/01 04:57:08;;;;;;;57.63;20.90;;;2.10;99.90;;;;;;4465046;27;657463;-51
2021/03/01 04:59:55;;;;;;;47.93;17.17;;;2.30;99.90;;;;;;4477746;27;659170;-50
2021/03/01 05:02:42;;;;;;;59.23;21.73;;;2.30;99.90;;;;;;4483072;27;657439;-53
2021/03/01 05:05:29;;;;;;;64.03;22.40;;;2.30;99.90;;;;;;4483529;27;658479;-48
2021/03/01 05:08:16;;;;;;;58.20;21.37;;;2.30;99.90;;;;;;4481505;27;658394;-49
2021/03/01 05:11:06;;;;;;;60.92;22.02;;;2.40;99.90;;;;;;4464281;27;658852;-47
2021/03/01 05:13:53;;;;;;;55.47;22.43;;;2.30;99.90;;;;;;4463081;27;657591;-50
2021/03/01 05:16:40;;;;;;;57.60;20.83;;;2.30;99.90;;;;;;4480135;27;658547;-49
2021/03/01 05:19:29;;;;;;;56.47;20.33;;;2.30;99.90;;;;;;4478832;27;658793;-51
2021/03/01 05:22:15;;;;;;;55.87;20.57;;;2.20;99.90;;;;;;4483339;27;658954;-49
2021/03/01 05:25:03;;;;;;;59.23;20.87;;;2.30;99.90;;;;;;4464705;27;657762;-52
2021/03/01 05:27:51;;;;;;;59.80;21.07;;;2.40;99.90;;;;;;4481285;28;657126;-47
2021/03/01 05:30:38;;;;;;;61.53;21.73;;;2.30;99.90;;;;;;4459699;28;658166;-49
2021/03/01 05:33:25;;;;;;;57.53;20.27;;;2.20;99.90;;;;;;4483644;28;659388;-49
2021/03/01 05:36:12;;;;;;;61.90;21.40;;;2.20;99.90;;;;;;4476558;28;658672;-53
2021/03/01 05:38:59;;;;;;;61.15;22.00;;;2.10;99.90;;;;;;4480266;28;657325;-52
2021/03/01 05:41:47;;;;;;;57.05;20.85;;;2.10;99.90;;;;;;4477002;28;657852;-47
2021/03/01 05:44:34;;;;;;;60.47;22.20;;;2.10;99.90;;;;;;4459124;28;657330;-53
2021/03/01 05:47:22;;;;;;;65.93;21.63;;;2.00;99.90;;;;;;4482597;28;657977;-52
2021/03/01 05:50:10;;;;;;;71.45;23.70;;;2.00;99.90;;;;;;4464390;28;659411;-49
2021/03/01 05:52:57;;;;;;;72.43;23.17;;;2.00;99.90;;;;;;4460456;27;658913;-53
2021/03/01 05:55:44;;;;;;;69.95;23.90;;;2.00;99.90;;;;;;4482033;27;657306;-49
2021/03/01 05:58:31;;;;;;;70.27;22.77;;;2.00;99.90;;;;;;4480794;27;658679;-49
2021/03/01 06:01:19;;;;;;;68.35;23.25;;;2.10;99.90;;;;;;4459979;27;658754;-48
2021/03/01 06:04:06;;;;;;;63.80;22.85;;;2.00;99.90;;;;;;4482209;27;658760;-49
2021/03/01 06:06:53;;;;;;;59.40;21.57;;;2.30;99.90;;;;;;4460251;27;659152;-50
2021/03/01 06:09:41;;;;;;;68.57;24.23;;;2.30;99.90;;;;;;4470519;27;659052;-47
2021/03/01 06:12:27;;;;;;;68.77;24.00;;;2.30;99.90;;;;;;4462897;27;657959;-49
2021/03/01 06:15:15;;;;;;;57.43;19.70;;;2.20;99.90;;;;;;4486327;27;658723;-48
2021/03/01 06:18:07;;;;;;;59.80;22.47;;;2.30;99.90;;;;;;4466694;27;659944;-52
2021/03/01 06:21:07;;;;;;;65.53;23.57;;;2.30;99.90;;;;;;4463617;27;659424;-47
2021/03/01 06:23:55;;;;;;;66.60;22.33;;;2.30;99.90;;;;;;4435062;27;658409;-46
2021/03/01 06:26:42;;;;;;;71.83;24.17;;;2.20;99.90;;;;;;4465900;27;657582;-50
2021/03/01 06:29:29;;;;;;;63.77;22.47;;;2.20;99.90;;;;;;4490341;27;658814;-46
2021/03/01 06:32:16;;;;;;;67.90;23.50;;;2.20;99.90;;;;;;4486627;27;657349;-49
2021/03/01 06:35:25;;;;;;;65.30;23.73;;;2.30;99.90;;;;;;4464884;27;659814;-47
2021/03/01 06:38:17;;;;;;;48.93;18.10;;;2.30;99.90;;;;;;4453457;27;657350;-55
2021/03/01 06:41:17;;;;;;;59.67;21.27;;;2.50;99.90;;;;;;4459851;27;658849;-48
2021/03/01 06:44:04;;;;;;;62.10;21.45;;;2.50;99.90;;;;;;4436052;27;658678;-50
2021/03/01 06:46:52;;;;;;;57.90;19.83;;;2.50;99.90;;;;;;4486091;27;658223;-52
2021/03/01 06:49:41;;;;;;;55.67;21.08;;;2.60;99.90;;;;;;4455852;27;659365;-50
2021/03/01 06:52:37;;;;;;;59.90;21.47;;;2.60;99.90;;;;;;4460207;27;658674;-50
2021/03/01 06:55:24;;;;;;;65.30;21.93;;;2.50;99.90;;;;;;4439397;27;659085;-47
2021/03/01 06:58:24;;;;;;;57.53;21.83;;;2.50;99.90;;;;;;4483306;27;657682;-52
2021/03/01 07:01:12;;;;;;;59.47;21.53;;;2.50;99.90;;;;;;4460602;27;657782;-49
2021/03/01 07:04:02;;;;;;;50.93;18.07;;;2.80;99.90;;;;;;4464536;27;658264;-53
2021/03/01 07:06:49;;;;;;;58.80;21.73;;;2.80;99.90;;;;;;4461152;27;658403;-56
2021/03/01 07:09:37;;;;;;;64.13;21.97;;;2.70;99.90;;;;;;4481416;27;657299;-57
2021/03/01 07:12:36;;;;;;;69.97;22.60;;;2.60;99.90;;;;;;4459803;27;658553;-56
2021/03/01 07:15:23;;;;;;;66.28;23.08;;;2.70;99.90;;;;;;4440101;27;658964;-57
2021/03/01 07:18:10;;;;;;;62.42;22.02;;;2.70;99.90;;;;;;4485781;27;659285;-55
2021/03/01 07:20:58;;;;;;;63.67;22.05;;;2.70;99.90;;;;;;4467900;27;658133;-58
2021/03/01 07:23:46;;;;;;;64.20;22.70;;;2.80;99.90;;;;;;4479824;27;659036;-57
2021/03/01 07:26:34;;;;;;;64.43;20.93;;;2.80;99.90;;;;;;4466864;27;657986;-57
2021/03/01 07:29:22;;;;;;;63.27;22.87;;;2.90;99.90;;;;;;4486328;27;658129;-57
2021/03/01 07:32:10;;;;;;;60.40;21.73;;;3.00;99.90;;;;;;4461482;27;658268;-57
2021/03/01 07:34:57;;;;;;;63.67;21.87;;;2.90;99.90;;;;;;4470148;27;657947;-58
2021/03/01 07:37:44;;;;;;;66.97;23.47;;;3.00;99.90;;;;;;4456775;27;658325;-57
2021/03/01 07:40:31;;;;;;;50.13;20.53;;;3.10;99.90;;;;;;4485337;27;657387;-57
2021/03/01 07:43:19;;;;;;;70.47;23.57;;;3.00;99.90;;;;;;4465982;27;658235;-58
2021/03/01 07:46:06;;;;;;;60.00;22.20;;;3.00;99.90;;;;;;4468511;27;657449;-58
2021/03/01 07:48:53;;;;;;;66.90;23.23;;;3.00;99.90;;;;;;4446533;27;658111;-56
2021/03/01 07:51:42;;;;;;;52.37;21.40;;;3.00;99.90;;;;;;4474927;27;657662;-58
2021/03/01 07:54:50;;;;;;;61.00;22.73;;;3.30;99.90;;;;;;4462390;27;659165;-57
2021/03/01 07:57:38;;;;;;;56.00;21.87;;;3.50;99.90;;;;;;4454374;27;657189;-58
2021/03/01 08:00:26;;;;;;;64.27;22.17;;;3.50;99.90;;;;;;4484904;27;658513;-58
2021/03/01 08:03:34;;;;;;;60.67;20.70;;;3.60;99.90;;;;;;4455477;27;659290;-58
2021/03/01 08:06:21;;;;;;;59.00;20.27;;;3.70;99.90;;;;;;4447911;27;658832;-57
2021/03/01 08:09:08;;;;;;;55.77;20.47;;;3.70;99.90;;;;;;4466244;27;658124;-57
2021/03/01 08:11:55;;;;;;;49.30;19.30;;;3.80;99.90;;;;;;4488885;27;660158;-57
2021/03/01 08:14:58;;;;;;;52.30;19.13;;;4.10;99.90;;;;;;4471627;27;657697;-58
2021/03/01 08:17:49;;;;;;;49.00;18.77;;;4.10;99.90;;;;;;4448264;27;658276;-57
2021/03/01 08:20:55;;;;;;;34.90;14.35;;;4.10;99.90;;;;;;4451135;27;658289;-58
2021/03/01 08:23:42;;;;;;;48.17;18.03;;;4.40;99.90;;;;;;4442595;27;658456;-57
2021/03/01 08:26:30;;;;;;;39.63;15.80;;;4.30;99.90;;;;;;4488741;27;657594;-58
2021/03/01 08:29:17;;;;;;;49.33;17.20;;;4.30;99.90;;;;;;4476869;27;657656;-58
2021/03/01 08:32:13;;;;;;;33.33;13.43;;;4.20;99.90;;;;;;4489735;27;657822;-57
2021/03/01 08:35:24;;;;;;;38.50;13.90;;;4.40;99.90;;;;;;4435308;27;659675;-57
2021/03/01 08:38:12;;;;;;;38.93;14.70;;;4.60;99.90;;;;;;4461806;27;657740;-57
2021/03/01 08:40:59;;;;;;;36.40;11.00;;;4.80;99.90;;;;;;4461461;27;659133;-57
2021/03/01 08:43:47;;;;;;;37.87;15.03;;;4.70;99.90;;;;;;4484640;27;658119;-58
2021/03/01 08:46:34;;;;;;;38.83;16.47;;;4.60;99.90;;;;;;4457011;27;658504;-57
2021/03/01 08:49:25;;;;;;;36.60;13.93;;;4.40;99.90;;;;;;4484634;27;657020;-57
2021/03/01 08:52:17;;;;;;;35.00;13.63;;;4.30;99.90;;;;;;4448144;27;657527;-58
2021/03/01 08:55:06;;;;;;;33.97;13.60;;;4.30;99.90;;;;;;4465161;27;658580;-58
2021/03/01 08:58:03;;;;;;;34.37;13.87;;;4.10;99.90;;;;;;4464749;27;657858;-58
2021/03/01 09:00:55;;;;;;;33.35;12.25;;;4.10;99.90;;;;;;4460580;27;658199;-57
2021/03/01 09:03:42;;;;;;;18.03;6.40;;;4.10;99.90;;;;;;4447067;27;658903;-57
2021/03/01 09:06:31;;;;;;;32.93;13.37;;;4.20;99.90;;;;;;4454967;27;658015;-57
2021/03/01 09:09:19;;;;;;;35.27;13.87;;;4.20;99.90;;;;;;4457272;27;657853;-57
2021/03/01 09:12:07;;;;;;;33.30;13.60;;;4.20;99.90;;;;;;4481675;27;659093;-57
2021/03/01 09:14:55;;;;;;;30.80;11.73;;;4.20;99.90;;;;;;4449658;27;658410;-57
2021/03/01 09:17:42;;;;;;;23.83;9.37;;;4.10;99.90;;;;;;4454769;27;657370;-57
2021/03/01 09:20:34;;;;;;;41.37;16.20;;;4.20;99.90;;;;;;4479444;27;657425;-58
2021/03/01 09:23:42;;;;;;;39.57;14.70;;;4.40;99.90;;;;;;4461315;27;657593;-58
2021/03/01 09:26:31;;;;;;;40.67;14.20;;;4.20;99.90;;;;;;4436247;27;657917;-57
2021/03/01 09:29:19;;;;;;;44.23;17.00;;;4.10;99.90;;;;;;4458530;28;657546;-57
2021/03/01 09:32:07;;;;;;;43.83;16.53;;;4.20;99.90;;;;;;4484320;28;657464;-58
2021/03/01 09:34:54;;;;;;;48.23;18.33;;;4.40;99.90;;;;;;4464670;28;658427;-55
2021/03/01 09:37:41;;;;;;;54.17;19.23;;;4.60;99.90;;;;;;4477533;28;657184;-58
2021/03/01 09:40:28;;;;;;;50.13;19.77;;;4.70;99.90;;;;;;4465636;28;658003;-55
2021/03/01 09:43:16;;;;;;;61.30;19.90;;;4.90;99.90;;;;;;4483879;28;657968;-56
2021/03/01 09:46:03;;;;;;;51.63;19.67;;;5.00;99.90;;;;;;4457079;28;658726;-56
2021/03/01 09:48:52;;;;;;;46.20;18.53;;;5.00;99.90;;;;;;4484064;28;657413;-58
2021/03/01 09:51:40;;;;;;;45.70;18.00;;;5.00;99.90;;;;;;4452916;28;658653;-58
2021/03/01 09:54:27;;;;;;;45.87;17.53;;;5.10;99.90;;;;;;4483446;28;658389;-58
2021/03/01 09:57:14;;;;;;;44.97;18.73;;;5.10;99.90;;;;;;4484238;28;657252;-58
2021/03/01 10:00:20;;;;;;;41.55;16.33;;;5.20;99.90;;;;;;4480823;28;659129;-58
2021/03/01 10:03:07;;;;;;;43.93;17.47;;;5.00;99.90;;;;;;4441262;28;658093;-58
2021/03/01 10:05:54;;;;;;;40.00;16.33;;;4.80;99.90;;;;;;4487481;28;657991;-58
2021/03/01 10:08:42;;;;;;;40.17;16.93;;;5.00;99.90;;;;;;4479066;28;657273;-58
2021/03/01 10:11:29;;;;;;;39.90;16.87;;;4.90;99.90;;;;;;4454945;28;659147;-58
2021/03/01 10:14:16;;;;;;;42.55;16.25;;;4.90;99.90;;;;;;4483823;28;657936;-58
2021/03/01 10:17:16;;;;;;;43.83;17.77;;;5.10;99.90;;;;;;4455419;28;659626;-59
2021/03/01 10:20:05;;;;;;;47.77;17.63;;;5.20;99.90;;;;;;4436453;28;659156;-58
2021/03/01 10:23:02;;;;;;;38.03;17.37;;;5.30;99.90;;;;;;4460888;28;657582;-59
2021/03/01 10:25:49;;;;;;;39.00;14.60;;;5.50;99.90;;;;;;4427949;28;659722;-58
2021/03/01 10:28:36;;;;;;;38.33;16.10;;;5.50;99.90;;;;;;4480007;28;658424;-58
2021/03/01 10:31:25;;;;;;;38.00;16.83;;;5.60;99.90;;;;;;4457829;28;658007;-59
2021/03/01 10:34:14;;;;;;;35.00;15.43;;;5.60;99.90;;;;;;4469470;28;658427;-59
2021/03/01 10:37:02;;;;;;;40.03;15.77;;;5.60;99.90;;;;;;4480835;28;657817;-58
2021/03/01 10:39:49;;;;;;;38.77;15.27;;;5.50;99.90;;;;;;4447507;27;659222;-59
2021/03/01 10:42:38;;;;;;;37.50;15.73;;;5.50;99.90;;;;;;4474555;27;658007;-59
2021/03/01 10:45:25;;;;;;;36.27;15.67;;;5.70;99.90;;;;;;4463839;27;659744;-58
2021/03/01 10:48:12;;;;;;;38.88;15.90;;;5.40;99.90;;;;;;4472434;27;658462;-59
2021/03/01 10:51:00;;;;;;;36.27;15.93;;;5.40;99.90;;;;;;4482619;27;658607;-58
2021/03/01 10:53:47;;;;;;;43.77;18.87;;;5.30;99.90;;;;;;4465851;27;658297;-59
2021/03/01 10:56:35;;;;;;;40.37;16.73;;;5.30;99.90;;;;;;4481557;27;658463;-58
2021/03/01 10:59:22;;;;;;;39.97;16.47;;;5.40;99.90;;;;;;4486289;27;658192;-58
2021/03/01 11:02:09;;;;;;;40.30;17.08;;;5.50;99.90;;;;;;4489942;27;658387;-58
2021/03/01 11:04:56;;;;;;;37.10;12.00;;;5.60;99.90;;;;;;4486052;27;658423;-58
2021/03/01 11:07:44;;;;;;;45.00;17.03;;;5.50;99.90;;;;;;4451940;27;657850;-56
2021/03/01 11:10:31;;;;;;;41.03;15.93;;;5.40;99.90;;;;;;4476546;27;658699;-57
2021/03/01 11:13:18;;;;;;;40.67;13.67;;;5.40;99.90;;;;;;4458359;27;658353;-57
2021/03/01 11:16:06;;;;;;;39.63;17.40;;;5.40;99.90;;;;;;4485416;27;659089;-59
2021/03/01 11:18:53;;;;;;;52.30;19.57;;;5.50;99.90;;;;;;4467232;27;657543;-58
2021/03/01 11:21:40;;;;;;;52.50;18.80;;;5.50;99.90;;;;;;4468656;27;658486;-58
2021/03/01 11:24:28;;;;;;;45.33;18.90;;;5.50;99.90;;;;;;4481634;27;658946;-59
2021/03/01 11:27:15;;;;;;;49.53;19.67;;;5.50;99.90;;;;;;4480703;27;658612;-55
2021/03/01 11:30:02;;;;;;;58.30;23.03;;;5.60;99.90;;;;;;4466541;27;657550;-59
2021/03/01 11:32:49;;;;;;;56.43;22.20;;;5.70;99.90;;;;;;4489325;27;657666;-58
2021/03/01 11:35:36;;;;;;;47.90;18.73;;;5.80;99.90;;;;;;4486112;27;657636;-58
2021/03/01 11:38:24;;;;;;;47.80;18.73;;;5.80;99.90;;;;;;4456699;27;659070;-57
2021/03/01 11:41:14;;;;;;;47.60;18.10;;;5.80;99.90;;;;;;4477126;27;658484;-58
2021/03/01 11:44:01;;;;;;;40.90;17.80;;;5.90;99.90;;;;;;4453676;27;657955;-58
2021/03/01 11:46:48;;;;;;;49.20;18.60;;;5.90;99.90;;;;;;4466092;27;657812;-59
2021/03/01 11:49:36;;;;;;;45.97;18.17;;;6.00;99.90;;;;;;4476758;27;659220;-58
2021/03/01 11:52:23;;;;;;;42.17;17.23;;;6.00;99.90;;;;;;4458263;27;657209;-59
2021/03/01 11:55:11;;;;;;;38.37;15.83;;;6.10;99.90;;;;;;4484356;27;659695;-58
2021/03/01 11:57:59;;;;;;;35.63;15.13;;;6.00;99.90;;;;;;4466707;27;658610;-58
2021/03/01 12:00:46;;;;;;;35.35;15.38;;;6.10;99.90;;;;;;4485661;27;657947;-58
2021/03/01 12:03:34;;;;;;;37.67;16.03;;;6.20;99.90;;;;;;4466622;27;658870;-58
2021/03/01 12:06:21;;;;;;;34.00;14.67;;;6.10;99.90;;;;;;4485594;27;657180;-56
2021/03/01 12:09:08;;;;;;;41.37;16.70;;;5.80;99.90;;;;;;4460426;27;658214;-58
2021/03/01 12:11:55;;;;;;;39.47;16.43;;;5.60;99.90;;;;;;4485672;27;658958;-58
2021/03/01 12:14:43;;;;;;;36.13;15.80;;;5.50;99.90;;;;;;4479520;27;657681;-58
2021/03/01 12:17:30;;;;;;;42.60;15.97;;;5.30;99.90;;;;;;4474386;27;658865;-57
2021/03/01 12:20:17;;;;;;;37.08;15.63;;;5.10;99.90;;;;;;4464321;27;657832;-58
2021/03/01 12:23:04;;;;;;;38.73;16.03;;;5.10;99.90;;;;;;4486826;27;657284;-58
2021/03/01 12:25:52;;;;;;;37.97;15.57;;;5.50;99.90;;;;;;4484571;27;657861;-57
2021/03/01 12:28:39;;;;;;;38.07;14.63;;;5.60;99.90;;;;;;4461519;27;658900;-58
2021/03/01 12:31:27;;;;;;;32.20;13.80;;;5.50;99.90;;;;;;4484607;27;657905;-57
2021/03/01 12:34:14;;;;;;;38.50;14.30;;;5.40;99.90;;;;;;4453938;27;659282;-56
2021/03/01 12:37:01;;;;;;;36.50;15.33;;;5.30;99.90;;;;;;4472879;27;657702;-58
2021/03/01 12:39:48;;;;;;;28.42;12.15;;;5.40;99.90;;;;;;4465020;27;657787;-57
2021/03/01 12:42:35;;;;;;;23.52;10.25;;;5.50;99.90;;;;;;4471150;27;659273;-57
2021/03/01 12:45:22;;;;;;;28.23;11.18;;;5.40;99.90;;;;;;4466108;27;657875;-57
2021/03/01 12:48:11;;;;;;;27.50;12.30;;;5.30;99.90;;;;;;4481399;27;658316;-58
2021/03/01 12:50:58;;;;;;;30.73;11.73;;;5.30;99.90;;;;;;4458938;27;658489;-58
2021/03/01 12:53:45;;;;;;;35.57;13.30;;;5.50;99.90;;;;;;4476194;27;657790;-58
2021/03/01 12:56:32;;;;;;;34.60;13.77;;;5.40;99.90;;;;;;4465882;27;657509;-58
2021/03/01 12:59:19;;;;;;;40.80;15.47;;;5.30;99.90;;;;;;4488446;27;657172;-58
2021/03/01 13:02:06;;;;;;;67.40;15.33;;;5.40;99.90;;;;;;4478425;27;658080;-57
2021/03/01 13:04:55;;;;;;;35.05;14.55;;;5.60;99.90;;;;;;4460432;27;658950;-57
2021/03/01 13:07:42;;;;;;;36.13;15.43;;;5.60;99.90;;;;;;4469988;27;658114;-58
2021/03/01 13:10:44;;;;;;;34.67;14.67;;;5.50;99.90;;;;;;4481007;27;658140;-58
2021/03/01 13:13:57;;;;;;;34.67;14.67;;;5.50;99.90;;;;;;4405122;28;657975;-59
2021/03/01 13:16:44;;;;;;;30.33;13.83;;;5.40;99.90;;;;;;4306794;28;659236;-56
2021/03/01 13:19:31;;;;;;;29.17;12.47;;;5.40;99.90;;;;;;4347961;28;658500;-58
2021/03/01 13:22:19;;;;;;;36.17;14.13;;;5.30;99.90;;;;;;4337687;28;658003;-57
2021/03/01 13:25:07;;;;;;;35.47;14.97;;;5.50;99.90;;;;;;4347668;28;658411;-58
2021/03/01 13:27:54;;;;;;;36.00;14.73;;;5.40;99.90;;;;;;4335501;28;659230;-58
2021/03/01 13:30:41;;;;;;;32.17;14.93;;;5.40;99.90;;;;;;4351560;28;658023;-58
2021/03/01 13:33:28;;;;;;;35.37;14.43;;;5.50;99.90;;;;;;4329748;28;657785;-59
2021/03/01 13:36:15;;;;;;;35.30;14.20;;;5.50;99.90;;;;;;4343576;28;658398;-58
2021/03/01 13:39:04;;;;;;;35.83;15.77;;;5.60;99.90;;;;;;4334062;28;657480;-59
2021/03/01 13:41:51;;;;;;;39.63;16.33;;;5.60;99.90;;;;;;4342957;28;658926;-58
2021/03/01 13:44:38;;;;;;;37.77;16.47;;;5.50;99.90;;;;;;4327673;28;657422;-59
2021/03/01 13:47:25;;;;;;;37.07;16.63;;;5.50;99.90;;;;;;4341954;28;659207;-58
2021/03/01 13:50:12;;;;;;;38.77;16.20;;;5.50;99.90;;;;;;4349262;28;657970;-58
2021/03/01 13:52:59;;;;;;;39.33;16.63;;;5.60;99.90;;;;;;4320482;28;658487;-56
2021/03/01 13:55:47;;;;;;;31.93;14.40;;;5.50;99.90;;;;;;4371968;28;658020;-57
2021/03/01 13:58:34;;;;;;;35.90;14.97;;;5.50;99.90;;;;;;4455012;28;659716;-58
2021/03/01 14:01:22;;;;;;;38.27;16.40;;;5.60;99.90;;;;;;4471562;28;658588;-58
2021/03/01 14:04:09;;;;;;;55.67;18.27;;;5.60;99.90;;;;;;4458323;28;659164;-58
2021/03/01 14:06:56;;;;;;;180.18;34.30;;;5.60;99.90;;;;;;4478515;28;657828;-58
2021/03/01 14:09:44;;;;;;;95.38;23.25;;;5.60;99.90;;;;;;4459687;28;658660;-58
2021/03/01 14:12:32;;;;;;;41.63;16.37;;;5.60;99.90;;;;;;4477404;28;657822;-58
2021/03/01 14:15:19;;;;;;;37.20;16.05;;;5.50;99.90;;;;;;4455135;27;658614;-58